sensor_id;sensor_type;location;lat;lon;timestamp;pressure;altitude;pressure_sealevel;temperature;humidity
72157;BME280;60035;52.122;5.406;2023-03-02T00:01:23;102819.19;;;0.28;88.24
72157;BME280;60035;52.122;5.406;2023-03-02T00:03:51;102816.53;;;0.25;88.02
72157;BME280;60035;52.122;5.406;2023-03-02T00:06:19;102818.91;;;0.22;88.50
72157;BME280;60035;52.122;5.406;2023-03-02T00:08:46;102809.59;;;0.21;88.83
72157;BME280;60035;52.122;5.406;2023-03-02T00:11:12;102822.16;;;0.20;89.24
72157;BME280;60035;52.122;5.406;2023-03-02T00:13:41;102810.44;;;0.20;89.53
72157;BME280;60035;52.122;5.406;2023-03-02T00:16:08;102812.00;;;0.18;90.16
72157;BME280;60035;52.122;5.406;2023-03-02T00:18:35;102810.28;;;0.17;90.75
72157;BME280;60035;52.122;5.406;2023-03-02T00:21:01;102802.66;;;0.15;91.04
72157;BME280;60035;52.122;5.406;2023-03-02T00:23:28;102803.44;;;0.14;91.27
72157;BME280;60035;52.122;5.406;2023-03-02T00:25:54;102800.91;;;0.14;91.83
72157;BME280;60035;52.122;5.406;2023-03-02T00:28:21;102800.91;;;0.14;92.11
72157;BME280;60035;52.122;5.406;2023-03-02T00:30:47;102802.66;;;0.15;92.64
72157;BME280;60035;52.122;5.406;2023-03-02T00:33:14;102799.34;;;0.16;93.01
72157;BME280;60035;52.122;5.406;2023-03-02T00:35:41;102801.00;;;0.16;93.01
72157;BME280;60035;52.122;5.406;2023-03-02T00:38:07;102807.75;;;0.17;93.67
72157;BME280;60035;52.122;5.406;2023-03-02T00:40:34;102798.56;;;0.18;93.90
72157;BME280;60035;52.122;5.406;2023-03-02T00:43:01;102799.41;;;0.18;94.68
72157;BME280;60035;52.122;5.406;2023-03-02T00:45:28;102799.34;;;0.16;94.75
72157;BME280;60035;52.122;5.406;2023-03-02T00:47:54;102796.03;;;0.18;95.14
72157;BME280;60035;52.122;5.406;2023-03-02T00:50:21;102797.78;;;0.19;95.37
72157;BME280;60035;52.122;5.406;2023-03-02T00:52:47;102793.50;;;0.18;95.73
72157;BME280;60035;52.122;5.406;2023-03-02T00:55:14;102802.81;;;0.19;95.93
72157;BME280;60035;52.122;5.406;2023-03-02T00:57:40;102801.06;;;0.18;96.06
72157;BME280;60035;52.122;5.406;2023-03-02T01:00:07;102796.75;;;0.15;96.32
72157;BME280;60035;52.122;5.406;2023-03-02T01:02:34;102799.22;;;0.13;96.25
72157;BME280;60035;52.122;5.406;2023-03-02T01:05:01;102800.91;;;0.14;96.70
72157;BME280;60035;52.122;5.406;2023-03-02T01:07:27;102802.53;;;0.12;97.00
72157;BME280;60035;52.122;5.406;2023-03-02T01:09:54;102800.78;;;0.11;96.87
72157;BME280;60035;52.122;5.406;2023-03-02T01:12:20;102797.41;;;0.11;96.96
72157;BME280;60035;52.122;5.406;2023-03-02T01:14:48;102799.06;;;0.10;97.31
72157;BME280;60035;52.122;5.406;2023-03-02T01:17:16;102798.19;;;0.10;97.55
72157;BME280;60035;52.122;5.406;2023-03-02T01:19:42;102797.34;;;0.09;97.51
72157;BME280;60035;52.122;5.406;2023-03-02T01:22:09;102795.69;;;0.10;97.48
72157;BME280;60035;52.122;5.406;2023-03-02T01:24:36;102795.56;;;0.07;97.51
72157;BME280;60035;52.122;5.406;2023-03-02T01:27:02;102793.81;;;0.06;97.77
72157;BME280;60035;52.122;5.406;2023-03-02T01:29:29;102791.38;;;0.07;98.02
72157;BME280;60035;52.122;5.406;2023-03-02T01:31:55;102788.84;;;0.07;97.88
72157;BME280;60035;52.122;5.406;2023-03-02T01:34:22;102784.59;;;0.06;98.00
72157;BME280;60035;52.122;5.406;2023-03-02T01:36:49;102783.75;;;0.06;98.44
72157;BME280;60035;52.122;5.406;2023-03-02T01:39:15;102775.31;;;0.05;98.48
72157;BME280;60035;52.122;5.406;2023-03-02T01:41:44;102777.81;;;0.05;98.37
72157;BME280;60035;52.122;5.406;2023-03-02T01:47:21;102776.91;;;0.03;98.87
72157;BME280;60035;52.122;5.406;2023-03-02T01:49:55;102777.75;;;0.04;99.02
72157;BME280;60035;52.122;5.406;2023-03-02T01:52:25;102778.56;;;0.03;98.72
72157;BME280;60035;52.122;5.406;2023-03-02T01:54:55;102770.94;;;0.01;98.78
72157;BME280;60035;52.122;5.406;2023-03-02T01:57:28;102770.75;;;-0.04;98.79
72157;BME280;60035;52.122;5.406;2023-03-02T02:00:01;102774.88;;;-0.04;99.00
72157;BME280;60035;52.122;5.406;2023-03-02T02:02:34;102780.75;;;-0.05;99.12
72157;BME280;60035;52.122;5.406;2023-03-02T02:05:02;102776.50;;;-0.06;99.23
72157;BME280;60035;52.122;5.406;2023-03-02T02:07:29;102774.75;;;-0.07;99.04
72157;BME280;60035;52.122;5.406;2023-03-02T02:09:56;102773.81;;;-0.09;99.14
72157;BME280;60035;52.122;5.406;2023-03-02T02:12:23;102774.63;;;-0.10;99.43
72157;BME280;60035;52.122;5.406;2023-03-02T02:14:51;102770.38;;;-0.11;99.27
72157;BME280;60035;52.122;5.406;2023-03-02T02:17:19;102769.53;;;-0.12;99.24
72157;BME280;60035;52.122;5.406;2023-03-02T02:23:13;102766.91;;;-0.13;99.62
72157;BME280;60035;52.122;5.406;2023-03-02T02:28:26;102763.56;;;-0.14;99.91
72157;BME280;60035;52.122;5.406;2023-03-02T02:31:18;102754.34;;;-0.13;99.99
72157;BME280;60035;52.122;5.406;2023-03-02T02:33:49;102757.66;;;-0.14;100.00
72157;BME280;60035;52.122;5.406;2023-03-02T02:36:22;102754.34;;;-0.13;100.00
72157;BME280;60035;52.122;5.406;2023-03-02T02:38:53;102762.69;;;-0.14;100.00
72157;BME280;60035;52.122;5.406;2023-03-02T02:41:25;102763.56;;;-0.14;100.00
72157;BME280;60035;52.122;5.406;2023-03-02T02:43:54;102755.03;;;-0.16;100.00
72157;BME280;60035;52.122;5.406;2023-03-02T02:46:22;102755.94;;;-0.15;100.00
72157;BME280;60035;52.122;5.406;2023-03-02T02:48:48;102749.28;;;-0.13;100.00
72157;BME280;60035;52.122;5.406;2023-03-02T02:51:20;102745.94;;;-0.14;100.00
72157;BME280;60035;52.122;5.406;2023-03-02T02:53:58;102751.81;;;-0.13;100.00
72157;BME280;60035;52.122;5.406;2023-03-02T02:56:31;102738.31;;;-0.15;100.00
72157;BME280;60035;52.122;5.406;2023-03-02T02:59:20;102742.56;;;-0.14;100.00
72157;BME280;60035;52.122;5.406;2023-03-02T03:01:49;102738.31;;;-0.15;100.00
72157;BME280;60035;52.122;5.406;2023-03-02T03:04:20;102739.09;;;-0.17;100.00
72157;BME280;60035;52.122;5.406;2023-03-02T03:06:51;102743.28;;;-0.17;100.00
72157;BME280;60035;52.122;5.406;2023-03-02T03:09:18;102737.28;;;-0.19;100.00
72157;BME280;60035;52.122;5.406;2023-03-02T03:11:48;102739.75;;;-0.21;100.00
72157;BME280;60035;52.122;5.406;2023-03-02T03:14:18;102742.19;;;-0.22;100.00
72157;BME280;60035;52.122;5.406;2023-03-02T03:16:47;102736.22;;;-0.24;100.00
72157;BME280;60035;52.122;5.406;2023-03-02T03:19:21;102742.13;;;-0.24;100.00
72157;BME280;60035;52.122;5.406;2023-03-02T03:21:51;102739.63;;;-0.24;100.00
72157;BME280;60035;52.122;5.406;2023-03-02T03:24:21;102737.88;;;-0.25;100.00
72157;BME280;60035;52.122;5.406;2023-03-02T03:26:48;102738.66;;;-0.26;100.00
72157;BME280;60035;52.122;5.406;2023-03-02T03:29:15;102726.88;;;-0.27;100.00
72157;BME280;60035;52.122;5.406;2023-03-02T03:31:42;102730.19;;;-0.28;100.00
72157;BME280;60035;52.122;5.406;2023-03-02T03:34:11;102723.38;;;-0.30;100.00
72157;BME280;60035;52.122;5.406;2023-03-02T03:36:38;102726.69;;;-0.31;100.00
72157;BME280;60035;52.122;5.406;2023-03-02T03:39:09;102719.97;;;-0.31;100.00
72157;BME280;60035;52.122;5.406;2023-03-02T03:41:36;102729.19;;;-0.31;100.00
72157;BME280;60035;52.122;5.406;2023-03-02T03:44:03;102727.41;;;-0.34;100.00
72157;BME280;60035;52.122;5.406;2023-03-02T03:46:30;102718.91;;;-0.36;100.00
72157;BME280;60035;52.122;5.406;2023-03-02T03:48:57;102732.38;;;-0.36;100.00
72157;BME280;60035;52.122;5.406;2023-03-02T03:51:24;102733.94;;;-0.38;100.00
72157;BME280;60035;52.122;5.406;2023-03-02T03:53:51;102733.88;;;-0.39;100.00
72157;BME280;60035;52.122;5.406;2023-03-02T03:56:29;102734.66;;;-0.40;100.00
72157;BME280;60035;52.122;5.406;2023-03-02T03:58:57;102732.00;;;-0.43;100.00
72157;BME280;60035;52.122;5.406;2023-03-02T04:04:01;102734.53;;;-0.43;100.00
72157;BME280;60035;52.122;5.406;2023-03-02T04:06:28;102742.84;;;-0.44;100.00
72157;BME280;60035;52.122;5.406;2023-03-02T04:08:55;102745.38;;;-0.44;100.00
72157;BME280;60035;52.122;5.406;2023-03-02T04:11:21;102740.53;;;-0.40;100.00
72157;BME280;60035;52.122;5.406;2023-03-02T04:13:48;102745.72;;;-0.37;100.00
72157;BME280;60035;52.122;5.406;2023-03-02T04:16:15;102739.09;;;-0.35;100.00
72157;BME280;60035;52.122;5.406;2023-03-02T04:18:42;102737.53;;;-0.32;100.00
72157;BME280;60035;52.122;5.406;2023-03-02T04:21:08;102734.94;;;-0.34;100.00
72157;BME280;60035;52.122;5.406;2023-03-02T04:23:35;102734.94;;;-0.34;100.00
72157;BME280;60035;52.122;5.406;2023-03-02T04:26:01;102734.06;;;-0.35;100.00
72157;BME280;60035;52.122;5.406;2023-03-02T04:28:31;102736.59;;;-0.35;100.00
72157;BME280;60035;52.122;5.406;2023-03-02T04:30:57;102732.38;;;-0.36;100.00
72157;BME280;60035;52.122;5.406;2023-03-02T04:33:24;102737.41;;;-0.36;100.00
72157;BME280;60035;52.122;5.406;2023-03-02T04:35:51;102734.00;;;-0.36;100.00
72157;BME280;60035;52.122;5.406;2023-03-02T04:38:20;102741.56;;;-0.36;100.00
72157;BME280;60035;52.122;5.406;2023-03-02T04:40:46;102739.03;;;-0.36;100.00
72157;BME280;60035;52.122;5.406;2023-03-02T04:43:13;102738.19;;;-0.37;100.00
72157;BME280;60035;52.122;5.406;2023-03-02T04:45:40;102739.03;;;-0.36;100.00
72157;BME280;60035;52.122;5.406;2023-03-02T04:48:06;102740.63;;;-0.38;100.00
72157;BME280;60035;52.122;5.406;2023-03-02T04:50:33;102738.03;;;-0.40;100.00
72157;BME280;60035;52.122;5.406;2023-03-02T04:53:00;102743.69;;;-0.44;100.00
72157;BME280;60035;52.122;5.406;2023-03-02T04:55:27;102741.13;;;-0.45;100.00
72157;BME280;60035;52.122;5.406;2023-03-02T04:57:53;102750.34;;;-0.46;100.00
72157;BME280;60035;52.122;5.406;2023-03-02T05:00:20;102736.75;;;-0.49;100.00
72157;BME280;60035;52.122;5.406;2023-03-02T05:02:46;102739.97;;;-0.52;100.00
72157;BME280;60035;52.122;5.406;2023-03-02T05:05:32;102738.19;;;-0.55;100.00
72157;BME280;60035;52.122;5.406;2023-03-02T05:07:58;102728.75;;;-0.59;100.00
72157;BME280;60035;52.122;5.406;2023-03-02T05:10:26;102734.50;;;-0.61;100.00
72157;BME280;60035;52.122;5.406;2023-03-02T05:12:54;102730.19;;;-0.64;100.00
72157;BME280;60035;52.122;5.406;2023-03-02T05:15:27;102725.88;;;-0.67;100.00
72157;BME280;60035;52.122;5.406;2023-03-02T05:17:55;102728.25;;;-0.70;100.00
72157;BME280;60035;52.122;5.406;2023-03-02T05:20:22;102731.50;;;-0.72;100.00
72157;BME280;60035;52.122;5.406;2023-03-02T05:22:53;102731.34;;;-0.75;100.00
72157;BME280;60035;52.122;5.406;2023-03-02T05:25:21;102731.25;;;-0.77;100.00
72157;BME280;60035;52.122;5.406;2023-03-02T05:27:48;102728.66;;;-0.78;100.00
72157;BME280;60035;52.122;5.406;2023-03-02T05:30:15;102728.53;;;-0.81;100.00
72157;BME280;60035;52.122;5.406;2023-03-02T05:32:41;102733.56;;;-0.81;100.00
72157;BME280;60035;52.122;5.406;2023-03-02T05:35:08;102736.94;;;-0.81;100.00
72157;BME280;60035;52.122;5.406;2023-03-02T05:37:35;102731.75;;;-0.84;100.00
72157;BME280;60035;52.122;5.406;2023-03-02T05:40:02;102730.09;;;-0.84;100.00
72157;BME280;60035;52.122;5.406;2023-03-02T05:42:28;102730.97;;;-0.83;100.00
72157;BME280;60035;52.122;5.406;2023-03-02T05:44:55;102731.69;;;-0.86;100.00
72157;BME280;60035;52.122;5.406;2023-03-02T05:47:21;102723.19;;;-0.88;100.00
72157;BME280;60035;52.122;5.406;2023-03-02T05:49:48;102728.22;;;-0.88;100.00
72157;BME280;60035;52.122;5.406;2023-03-02T05:52:14;102723.97;;;-0.89;100.00
72157;BME280;60035;52.122;5.406;2023-03-02T05:54:41;102726.50;;;-0.89;100.00
72157;BME280;60035;52.122;5.406;2023-03-02T05:57:07;102718.88;;;-0.90;100.00
72157;BME280;60035;52.122;5.406;2023-03-02T05:59:34;102731.53;;;-0.89;100.00
72157;BME280;60035;52.122;5.406;2023-03-02T06:02:00;102736.47;;;-0.90;100.00
72157;BME280;60035;52.122;5.406;2023-03-02T06:04:27;102737.38;;;-0.90;100.00
72157;BME280;60035;52.122;5.406;2023-03-02T06:06:54;102742.31;;;-0.91;100.00
72157;BME280;60035;52.122;5.406;2023-03-02T06:09:20;102739.81;;;-0.91;100.00
72157;BME280;60035;52.122;5.406;2023-03-02T06:11:47;102739.81;;;-0.91;100.00
72157;BME280;60035;52.122;5.406;2023-03-02T06:14:14;102738.88;;;-0.93;100.00
72157;BME280;60035;52.122;5.406;2023-03-02T06:16:41;102743.03;;;-0.94;100.00
72157;BME280;60035;52.122;5.406;2023-03-02T06:19:07;102748.06;;;-0.94;100.00
72157;BME280;60035;52.122;5.406;2023-03-02T06:21:34;102753.94;;;-0.93;100.00
72157;BME280;60035;52.122;5.406;2023-03-02T06:24:01;102755.63;;;-0.94;100.00
72157;BME280;60035;52.122;5.406;2023-03-02T06:26:27;102756.31;;;-0.96;100.00
72157;BME280;60035;52.122;5.406;2023-03-02T06:28:54;102755.50;;;-0.95;100.00
72157;BME280;60035;52.122;5.406;2023-03-02T06:31:20;102757.09;;;-0.97;100.00
72157;BME280;60035;52.122;5.406;2023-03-02T06:33:48;102756.22;;;-0.98;100.00
72157;BME280;60035;52.122;5.406;2023-03-02T06:36:14;102755.38;;;-0.98;100.00
72157;BME280;60035;52.122;5.406;2023-03-02T06:38:42;102761.19;;;-0.99;100.00
72157;BME280;60035;52.122;5.406;2023-03-02T06:41:09;102763.69;;;-0.99;100.00
72157;BME280;60035;52.122;5.406;2023-03-02T06:43:35;102767.88;;;-1.00;100.00
72157;BME280;60035;52.122;5.406;2023-03-02T06:46:02;102766.22;;;-0.99;100.00
72157;BME280;60035;52.122;5.406;2023-03-02T06:48:29;102771.16;;;-1.01;100.00
72157;BME280;60035;52.122;5.406;2023-03-02T06:50:56;102772.06;;;-1.01;100.00
72157;BME280;60035;52.122;5.406;2023-03-02T06:53:23;102775.41;;;-1.00;100.00
72157;BME280;60035;52.122;5.406;2023-03-02T06:55:50;102771.25;;;-0.99;100.00
72157;BME280;60035;52.122;5.406;2023-03-02T06:58:17;102776.25;;;-0.99;100.00
72157;BME280;60035;52.122;5.406;2023-03-02T07:00:43;102778.84;;;-0.98;100.00
72157;BME280;60035;52.122;5.406;2023-03-02T07:03:10;102774.72;;;-0.97;100.00
72157;BME280;60035;52.122;5.406;2023-03-02T07:05:36;102773.94;;;-0.96;100.00
72157;BME280;60035;52.122;5.406;2023-03-02T07:08:03;102776.50;;;-0.95;100.00
72157;BME280;60035;52.122;5.406;2023-03-02T07:10:30;102777.38;;;-0.94;100.00
72157;BME280;60035;52.122;5.406;2023-03-02T07:12:56;102780.91;;;-0.91;100.00
72157;BME280;60035;52.122;5.406;2023-03-02T07:15:23;102779.41;;;-0.87;100.00
72157;BME280;60035;52.122;5.406;2023-03-02T07:17:50;102777.03;;;-0.84;100.00
72157;BME280;60035;52.122;5.406;2023-03-02T07:20:17;102787.22;;;-0.81;100.00
72157;BME280;60035;52.122;5.406;2023-03-02T07:22:44;102774.81;;;-0.78;100.00
72157;BME280;60035;52.122;5.406;2023-03-02T07:25:11;102776.75;;;-0.72;100.00
72157;BME280;60035;52.122;5.406;2023-03-02T07:27:38;102771.88;;;-0.69;100.00
72157;BME280;60035;52.122;5.406;2023-03-02T07:30:06;102772.03;;;-0.66;100.00
72157;BME280;60035;52.122;5.406;2023-03-02T07:32:33;102771.41;;;-0.62;100.00
72157;BME280;60035;52.122;5.406;2023-03-02T07:35:00;102769.88;;;-0.58;100.00
72157;BME280;60035;52.122;5.406;2023-03-02T07:37:26;102765.84;;;-0.55;100.00
72157;BME280;60035;52.122;5.406;2023-03-02T07:39:53;102764.41;;;-0.49;100.00
72157;BME280;60035;52.122;5.406;2023-03-02T07:42:19;102764.56;;;-0.46;100.00
72157;BME280;60035;52.122;5.406;2023-03-02T07:44:46;102764.78;;;-0.42;100.00
72157;BME280;60035;52.122;5.406;2023-03-02T07:47:13;102761.69;;;-0.36;100.00
72157;BME280;60035;52.122;5.406;2023-03-02T07:49:39;102763.56;;;-0.32;100.00
72157;BME280;60035;52.122;5.406;2023-03-02T07:52:06;102763.78;;;-0.27;100.00
72157;BME280;60035;52.122;5.406;2023-03-02T07:54:33;102762.41;;;-0.21;100.00
72157;BME280;60035;52.122;5.406;2023-03-02T07:56:59;102756.84;;;-0.13;100.00
72157;BME280;60035;52.122;5.406;2023-03-02T07:59:26;102758.72;;;-0.09;100.00
72157;BME280;60035;52.122;5.406;2023-03-02T08:01:54;102761.50;;;-0.03;100.00
72157;BME280;60035;52.122;5.406;2023-03-02T08:04:22;102752.44;;;0.01;100.00
72157;BME280;60035;52.122;5.406;2023-03-02T08:06:49;102756.03;;;0.06;100.00
72157;BME280;60035;52.122;5.406;2023-03-02T08:09:16;102762.22;;;0.12;100.00
72157;BME280;60035;52.122;5.406;2023-03-02T08:11:42;102754.06;;;0.18;100.00
72157;BME280;60035;52.122;5.406;2023-03-02T08:14:10;102759.44;;;0.26;100.00
72157;BME280;60035;52.122;5.406;2023-03-02T08:16:37;102760.56;;;0.32;100.00
72157;BME280;60035;52.122;5.406;2023-03-02T08:19:04;102756.72;;;0.41;100.00
72157;BME280;60035;52.122;5.406;2023-03-02T08:21:32;102757.06;;;0.48;100.00
72157;BME280;60035;52.122;5.406;2023-03-02T08:23:59;102753.16;;;0.55;100.00
72157;BME280;60035;52.122;5.406;2023-03-02T08:26:26;102759.47;;;0.65;100.00
72157;BME280;60035;52.122;5.406;2023-03-02T08:28:52;102750.41;;;0.70;100.00
72157;BME280;60035;52.122;5.406;2023-03-02T08:31:19;102746.41;;;0.75;100.00
72157;BME280;60035;52.122;5.406;2023-03-02T08:33:46;102751.94;;;0.86;100.00
72157;BME280;60035;52.122;5.406;2023-03-02T08:36:15;102749.72;;;0.94;100.00
72157;BME280;60035;52.122;5.406;2023-03-02T08:38:43;102751.69;;;1.01;100.00
72157;BME280;60035;52.122;5.406;2023-03-02T08:41:13;102758.72;;;1.08;100.00
72157;BME280;60035;52.122;5.406;2023-03-02T08:43:40;102755.66;;;1.15;100.00
72157;BME280;60035;52.122;5.406;2023-03-02T08:46:09;102755.03;;;1.21;100.00
72157;BME280;60035;52.122;5.406;2023-03-02T08:48:36;102759.44;;;1.27;99.82
72157;BME280;60035;52.122;5.406;2023-03-02T08:51:06;102759.75;;;1.35;99.42
72157;BME280;60035;52.122;5.406;2023-03-02T08:53:36;102759.13;;;1.40;99.09
72157;BME280;60035;52.122;5.406;2023-03-02T08:56:03;102766.91;;;1.45;98.75
72157;BME280;60035;52.122;5.406;2023-03-02T08:58:32;102754.59;;;1.53;98.49
72157;BME280;60035;52.122;5.406;2023-03-02T09:00:59;102746.38;;;1.58;98.53
72157;BME280;60035;52.122;5.406;2023-03-02T09:03:25;102751.69;;;1.64;98.10
72157;BME280;60035;52.122;5.406;2023-03-02T09:05:52;102747.66;;;1.70;98.15
72157;BME280;60035;52.122;5.406;2023-03-02T09:08:19;102749.66;;;1.78;98.04
72157;BME280;60035;52.122;5.406;2023-03-02T09:10:46;102747.38;;;1.85;97.80
72157;BME280;60035;52.122;5.406;2023-03-02T09:13:13;102747.72;;;1.94;97.72
72157;BME280;60035;52.122;5.406;2023-03-02T09:15:39;102752.13;;;1.99;97.30
72157;BME280;60035;52.122;5.406;2023-03-02T09:18:06;102746.66;;;2.11;97.17
72157;BME280;60035;52.122;5.406;2023-03-02T09:20:33;102745.28;;;2.20;96.88
72157;BME280;60035;52.122;5.406;2023-03-02T09:23:00;102744.66;;;2.25;96.73
72157;BME280;60035;52.122;5.406;2023-03-02T09:25:26;102743.16;;;2.30;96.55
72157;BME280;60035;52.122;5.406;2023-03-02T09:27:53;102744.09;;;2.34;96.08
72157;BME280;60035;52.122;5.406;2023-03-02T09:30:19;102743.53;;;2.41;95.85
72157;BME280;60035;52.122;5.406;2023-03-02T09:32:46;102741.22;;;2.47;95.56
72157;BME280;60035;52.122;5.406;2023-03-02T09:35:14;102741.53;;;2.57;95.44
72157;BME280;60035;52.122;5.406;2023-03-02T09:37:41;102744.25;;;2.63;95.22
72157;BME280;60035;52.122;5.406;2023-03-02T09:40:19;102751.25;;;2.70;94.66
72157;BME280;60035;52.122;5.406;2023-03-02T09:43:24;102749.94;;;2.81;94.31
72157;BME280;60035;52.122;5.406;2023-03-02T09:49:19;102750.84;;;3.09;93.69
72157;BME280;60035;52.122;5.406;2023-03-02T09:54:37;102742.94;;;3.26;92.32
72157;BME280;60035;52.122;5.406;2023-03-02T09:57:20;102746.72;;;3.39;91.98
72157;BME280;60035;52.122;5.406;2023-03-02T09:59:58;102744.41;;;3.46;91.48
72157;BME280;60035;52.122;5.406;2023-03-02T10:02:52;102738.03;;;3.58;90.86
72157;BME280;60035;52.122;5.406;2023-03-02T10:05:30;102739.41;;;3.77;90.64
72157;BME280;60035;52.122;5.406;2023-03-02T10:07:56;102739.69;;;3.86;89.90
72157;BME280;60035;52.122;5.406;2023-03-02T10:10:30;102743.38;;;3.96;89.48
72157;BME280;60035;52.122;5.406;2023-03-02T10:16:14;102758.16;;;4.11;88.25
72157;BME280;60035;52.122;5.406;2023-03-02T10:21:27;102755.59;;;4.41;87.50
72157;BME280;60035;52.122;5.406;2023-03-02T10:26:42;102743.69;;;4.71;86.39
72157;BME280;60035;52.122;5.406;2023-03-02T10:31:49;102736.63;;;4.92;84.67
72157;BME280;60035;52.122;5.406;2023-03-02T10:34:24;102735.09;;;4.99;83.63
72157;BME280;60035;52.122;5.406;2023-03-02T10:36:52;102726.81;;;5.08;83.37
72157;BME280;60035;52.122;5.406;2023-03-02T10:39:18;102734.78;;;5.22;82.71
72157;BME280;60035;52.122;5.406;2023-03-02T10:42:02;102731.56;;;5.30;82.07
72157;BME280;60035;52.122;5.406;2023-03-02T10:44:41;102729.34;;;5.44;81.73
72157;BME280;60035;52.122;5.406;2023-03-02T10:47:19;102721.16;;;5.56;81.07
72157;BME280;60035;52.122;5.406;2023-03-02T10:49:46;102727.22;;;5.63;79.92
72157;BME280;60035;52.122;5.406;2023-03-02T10:52:15;102721.56;;;5.76;80.04
72157;BME280;60035;52.122;5.406;2023-03-02T10:54:42;102710.13;;;5.95;79.44
72157;BME280;60035;52.122;5.406;2023-03-02T10:57:28;102719.53;;;5.99;77.79
72157;BME280;60035;52.122;5.406;2023-03-02T11:00:02;102713.03;;;6.14;77.66
72157;BME280;60035;52.122;5.406;2023-03-02T11:02:33;102706.47;;;6.27;77.11
72157;BME280;60035;52.122;5.406;2023-03-02T11:05:24;102703.25;;;6.36;76.20
72157;BME280;60035;52.122;5.406;2023-03-02T11:08:20;102699.25;;;6.47;75.82
72157;BME280;60035;52.122;5.406;2023-03-02T11:10:59;102702.66;;;6.50;73.65
72157;BME280;60035;52.122;5.406;2023-03-02T11:16:01;102691.44;;;6.90;73.59
72157;BME280;60035;52.122;5.406;2023-03-02T11:18:31;102687.47;;;7.09;72.32
72157;BME280;60035;52.122;5.406;2023-03-02T11:21:12;102684.19;;;7.14;71.59
72157;BME280;60035;52.122;5.406;2023-03-02T11:26:24;102681.78;;;7.25;71.34
72157;BME280;60035;52.122;5.406;2023-03-02T11:37:21;102666.31;;;7.77;69.54
72157;BME280;60035;52.122;5.406;2023-03-02T11:42:28;102666.38;;;7.82;67.26
72157;BME280;60035;52.122;5.406;2023-03-02T11:45:01;102660.47;;;7.86;67.68
72157;BME280;60035;52.122;5.406;2023-03-02T11:47:30;102662.19;;;7.89;67.25
72157;BME280;60035;52.122;5.406;2023-03-02T11:50:00;102663.09;;;7.94;67.26
72157;BME280;60035;52.122;5.406;2023-03-02T11:52:33;102657.19;;;7.99;66.79
72157;BME280;60035;52.122;5.406;2023-03-02T11:55:15;102655.59;;;8.09;65.84
72157;BME280;60035;52.122;5.406;2023-03-02T11:57:45;102648.75;;;8.05;64.29
72157;BME280;60035;52.122;5.406;2023-03-02T12:00:39;102650.63;;;8.22;64.75
72157;BME280;60035;52.122;5.406;2023-03-02T12:08:42;102645.00;;;8.57;64.44
72157;BME280;60035;52.122;5.406;2023-03-02T12:13:44;102635.75;;;8.74;64.85
72157;BME280;60035;52.122;5.406;2023-03-02T12:16:19;102627.31;;;8.83;64.34
72157;BME280;60035;52.122;5.406;2023-03-02T12:18:48;102629.81;;;8.77;62.83
72157;BME280;60035;52.122;5.406;2023-03-02T12:21:18;102625.59;;;8.83;62.33
72157;BME280;60035;52.122;5.406;2023-03-02T12:31:47;102613.03;;;9.19;61.94
72157;BME280;60035;52.122;5.406;2023-03-02T12:34:31;102614.84;;;9.37;60.70
72157;BME280;60035;52.122;5.406;2023-03-02T12:37:03;102605.44;;;9.33;59.62
72157;BME280;60035;52.122;5.406;2023-03-02T12:42:37;102606.31;;;9.40;58.71
72157;BME280;60035;52.122;5.406;2023-03-02T12:48:00;102598.75;;;9.78;59.06
72157;BME280;60035;52.122;5.406;2023-03-02T12:50:30;102599.63;;;9.83;59.04
72157;BME280;60035;52.122;5.406;2023-03-02T12:53:05;102598.75;;;9.80;58.82
72157;BME280;60035;52.122;5.406;2023-03-02T12:55:32;102591.13;;;9.92;58.83
72157;BME280;60035;52.122;5.406;2023-03-02T12:58:00;102588.56;;;9.92;58.17
72157;BME280;60035;52.122;5.406;2023-03-02T13:00:30;102585.16;;;10.04;57.62
72157;BME280;60035;52.122;5.406;2023-03-02T13:02:59;102586.03;;;10.22;57.36
72157;BME280;60035;52.122;5.406;2023-03-02T13:05:33;102586.06;;;10.39;56.43
72157;BME280;60035;52.122;5.406;2023-03-02T13:08:06;102581.75;;;10.33;56.28
72157;BME280;60035;52.122;5.406;2023-03-02T13:13:18;102573.25;;;10.39;55.41
72157;BME280;60035;52.122;5.406;2023-03-02T13:15:51;102565.56;;;10.36;54.69
72157;BME280;60035;52.122;5.406;2023-03-02T13:18:21;102570.69;;;10.40;54.29
72157;BME280;60035;52.122;5.406;2023-03-02T13:20:49;102559.56;;;10.38;54.68
72157;BME280;60035;52.122;5.406;2023-03-02T13:23:17;102561.31;;;10.36;54.44
72157;BME280;60035;52.122;5.406;2023-03-02T13:31:20;102548.44;;;10.61;57.24
72157;BME280;60035;52.122;5.406;2023-03-02T13:33:48;102550.16;;;10.70;57.07
72157;BME280;60035;52.122;5.406;2023-03-02T13:36:38;102550.16;;;10.70;57.67
72157;BME280;60035;52.122;5.406;2023-03-02T13:39:06;102552.72;;;10.68;58.36
72157;BME280;60035;52.122;5.406;2023-03-02T13:41:51;102547.59;;;10.62;58.49
72157;BME280;60035;52.122;5.406;2023-03-02T13:44:20;102557.00;;;10.60;59.22
72157;BME280;60035;52.122;5.406;2023-03-02T13:46:48;102553.59;;;10.56;59.51
72157;BME280;60035;52.122;5.406;2023-03-02T13:49:28;102551.88;;;10.61;59.73
72157;BME280;60035;52.122;5.406;2023-03-02T13:52:07;102558.69;;;10.59;60.15
72157;BME280;60035;52.122;5.406;2023-03-02T13:54:42;102559.53;;;10.66;60.35
72157;BME280;60035;52.122;5.406;2023-03-02T13:57:27;102553.59;;;10.55;59.71
72157;BME280;60035;52.122;5.406;2023-03-02T13:59:57;102555.28;;;10.59;60.00
72157;BME280;60035;52.122;5.406;2023-03-02T14:02:26;102555.25;;;10.85;59.68
72157;BME280;60035;52.122;5.406;2023-03-02T14:04:54;102542.31;;;11.13;59.63
72157;BME280;60035;52.122;5.406;2023-03-02T14:07:22;102544.78;;;11.33;59.27
72157;BME280;60035;52.122;5.406;2023-03-02T14:09:48;102542.09;;;11.52;58.36
72157;BME280;60035;52.122;5.406;2023-03-02T14:12:27;102538.59;;;11.65;58.95
72157;BME280;60035;52.122;5.406;2023-03-02T14:14:57;102531.63;;;11.86;58.04
72157;BME280;60035;52.122;5.406;2023-03-02T14:17:25;102534.97;;;11.97;57.06